Time;durP1;ratioP1;P1;durP2;ratioP2;P2;SDS_P1;SDS_P2;PMS_P1;PMS_P2;Temp;Humidity;BMP_temperature;BMP_pressure;BME280_temperature;BME280_humidity;BME280_pressure;Samples;Min_cycle;Max_cycle;Signal;HPM_P1;HPM_P2
2022/01/09 00:01:02;;;;;;;9.25;7.37;;;;;;;-0.51;91.91;98433.86;1711230;82;21084;-76
2022/01/09 00:03:29;;;;;;;10.32;7.35;;;;;;;-0.52;91.81;98436.47;1709564;82;21158;-76
2022/01/09 00:05:55;;;;;;;11.68;8.43;;;;;;;-0.53;91.88;98430.95;1711014;82;21021;-76
2022/01/09 00:08:22;;;;;;;11.30;8.78;;;;;;;-0.53;91.86;98437.36;1709011;82;21616;-76
2022/01/09 00:10:50;;;;;;;10.70;7.65;;;;;;;-0.53;91.89;98433.52;1695421;83;21099;-76
2022/01/09 00:13:17;;;;;;;10.58;7.50;;;;;;;-0.52;91.83;98435.19;1712795;82;20963;-76
2022/01/09 00:15:44;;;;;;;11.28;7.70;;;;;;;-0.52;91.95;98430.06;1712090;82;21471;-76
2022/01/09 00:18:11;;;;;;;14.73;9.95;;;;;;;-0.51;91.84;98433.02;1690362;83;21171;-76
2022/01/09 00:20:38;;;;;;;12.27;8.53;;;;;;;-0.51;91.84;98431.73;1691191;83;21009;-76
2022/01/09 00:23:05;;;;;;;10.82;8.53;;;;;;;-0.51;91.89;98429.17;1712128;82;21072;-76
2022/01/09 00:25:32;;;;;;;12.13;8.90;;;;;;;-0.52;91.79;98419.80;1711640;82;21612;-75
2022/01/09 00:27:58;;;;;;;12.33;9.08;;;;;;;-0.52;91.81;98426.22;1660246;83;21030;-75
2022/01/09 00:30:25;;;;;;;11.48;8.88;;;;;;;-0.53;91.83;98411.72;1711153;82;21077;-76
2022/01/09 00:32:53;;;;;;;14.38;9.33;;;;;;;-0.53;91.85;98425.83;1712093;82;21565;-76
2022/01/09 00:35:20;;;;;;;10.80;8.48;;;;;;;-0.55;91.76;98417.32;1710805;82;21081;-76
2022/01/09 00:37:47;;;;;;;8.30;6.92;;;;;;;-0.54;91.75;98415.14;1712400;82;21045;-76
2022/01/09 00:40:16;;;;;;;8.53;6.55;;;;;;;-0.56;91.77;98407.92;1709323;82;21505;-76
2022/01/09 00:42:43;;;;;;;8.35;6.95;;;;;;;-0.58;91.63;98407.14;1654315;83;21130;-75
2022/01/09 00:45:13;;;;;;;9.85;8.23;;;;;;;-0.62;91.69;98411.91;1711743;82;21448;-76
2022/01/09 00:47:41;;;;;;;11.40;8.30;;;;;;;-0.62;91.69;98409.35;1707287;82;21186;-76
2022/01/09 00:50:10;;;;;;;9.50;7.87;;;;;;;-0.62;91.72;98415.76;1704689;82;21013;-76
2022/01/09 00:52:39;;;;;;;8.80;7.00;;;;;;;-0.64;91.65;98407.25;1705518;82;20967;-76
2022/01/09 00:55:08;;;;;;;11.55;8.08;;;;;;;-0.63;91.78;98411.52;1694106;82;21018;-75
2022/01/09 00:57:36;;;;;;;12.37;8.30;;;;;;;-0.59;91.90;98406.71;1707318;82;21024;-76
2022/01/09 01:00:06;;;;;;;9.63;7.22;;;;;;;-0.62;91.66;98407.63;1709772;82;21155;-76
2022/01/09 01:02:34;;;;;;;9.23;7.35;;;;;;;-0.63;91.71;98399.55;1661751;83;21509;-76
2022/01/09 01:05:01;;;;;;;10.43;7.17;;;;;;;-0.65;91.56;98393.59;1710577;82;20970;-76
2022/01/09 01:07:28;;;;;;;12.97;8.63;;;;;;;-0.69;91.60;98394.12;1691707;83;21676;-76
2022/01/09 01:09:57;;;;;;;10.63;8.60;;;;;;;-0.71;91.65;98393.30;1694094;83;21971;-76
2022/01/09 01:12:27;;;;;;;11.50;8.18;;;;;;;-0.71;91.63;98384.33;1696347;83;21291;-76
2022/01/09 01:14:54;;;;;;;11.00;8.15;;;;;;;-0.71;91.68;98385.61;1692555;82;20994;-76
2022/01/09 01:17:22;;;;;;;12.18;8.33;;;;;;;-0.70;91.66;98375.78;1714056;82;21048;-76
2022/01/09 01:19:49;;;;;;;10.80;8.23;;;;;;;-0.70;91.63;98387.32;1708287;82;21689;-76
2022/01/09 01:22:16;;;;;;;13.53;8.73;;;;;;;-0.70;91.62;98383.47;1701644;82;20949;-76
2022/01/09 01:24:44;;;;;;;15.15;9.03;;;;;;;-0.72;91.63;98378.81;1711599;82;21225;-76
2022/01/09 01:27:12;;;;;;;10.30;8.90;;;;;;;-0.70;91.65;98386.04;1674300;83;21119;-76
2022/01/09 01:29:38;;;;;;;14.68;9.58;;;;;;;-0.69;91.64;98385.14;1704166;82;21013;-76
2022/01/09 01:32:07;;;;;;;12.82;10.23;;;;;;;-0.70;91.56;98369.37;1683200;83;21044;-76
2022/01/09 01:34:34;;;;;;;13.83;9.98;;;;;;;-0.69;91.61;98365.92;1711713;82;20915;-76
2022/01/09 01:37:01;;;;;;;12.53;9.40;;;;;;;-0.69;91.60;98364.64;1680057;85;21142;-76
2022/01/09 01:39:28;;;;;;;11.38;10.00;;;;;;;-0.66;91.63;98364.17;1712324;82;21041;-76
2022/01/09 01:41:55;;;;;;;13.13;10.50;;;;;;;-0.66;91.62;98357.77;1640234;85;21187;-76
2022/01/09 01:44:22;;;;;;;12.47;10.38;;;;;;;-0.66;91.56;98366.29;1712183;83;20958;-76
2022/01/09 01:46:49;;;;;;;13.08;10.32;;;;;;;-0.64;91.71;98355.98;1713577;82;21042;-76
2022/01/09 01:49:19;;;;;;;14.28;10.78;;;;;;;-0.64;91.65;98362.39;1713796;82;21212;-76
2022/01/09 01:51:45;;;;;;;14.55;10.95;;;;;;;-0.65;91.60;98362.00;1678097;83;21089;-76
2022/01/09 01:54:14;;;;;;;15.85;11.65;;;;;;;-0.68;91.63;98355.22;1712050;83;20970;-76
2022/01/09 01:56:41;;;;;;;15.63;12.23;;;;;;;-0.69;91.68;98353.10;1690935;83;21029;-76
2022/01/09 01:59:08;;;;;;;19.10;13.43;;;;;;;-0.68;91.71;98348.38;1691505;82;21077;-76
2022/01/09 02:01:36;;;;;;;18.70;12.82;;;;;;;-0.77;91.72;98339.63;1711508;82;21662;-75
2022/01/09 02:04:05;;;;;;;18.48;13.32;;;;;;;-0.68;91.76;98356.06;1666069;83;21771;-75
2022/01/09 02:06:34;;;;;;;18.27;12.85;;;;;;;-0.65;91.79;98364.56;1708280;82;21131;-75
2022/01/09 02:09:04;;;;;;;14.85;12.23;;;;;;;-0.64;91.75;98359.83;1710557;82;21561;-75
2022/01/09 02:11:33;;;;;;;14.07;11.57;;;;;;;-0.64;91.78;98363.67;1706822;82;21028;-75
2022/01/09 02:14:00;;;;;;;13.35;10.80;;;;;;;-0.63;91.72;98357.69;1703114;82;21422;-76
2022/01/09 02:16:28;;;;;;;14.10;10.30;;;;;;;-0.62;91.71;98361.92;1710582;82;20950;-76
2022/01/09 02:18:58;;;;;;;18.10;11.97;;;;;;;-0.59;91.74;98364.41;1708342;82;21829;-75
2022/01/09 02:21:26;;;;;;;14.80;10.00;;;;;;;-0.59;91.74;98360.56;1702958;82;21020;-75
2022/01/09 02:23:52;;;;;;;13.53;10.32;;;;;;;-0.58;91.68;98353.30;1713366;82;20934;-75
2022/01/09 02:26:26;;;;;;;16.37;10.72;;;;;;;-0.60;91.57;98352.48;1711063;82;21914;-75
2022/01/09 02:28:53;;;;;;;14.43;9.65;;;;;;;-0.63;91.50;98342.30;1710036;82;20945;-76
2022/01/09 02:31:20;;;;;;;12.20;10.47;;;;;;;-0.68;91.34;98339.40;1709305;82;21169;-76
2022/01/09 02:33:46;;;;;;;11.50;9.43;;;;;;;-0.76;91.01;98337.45;1709310;82;20993;-75
2022/01/09 02:36:13;;;;;;;11.50;9.77;;;;;;;-0.90;90.80;98336.94;1702947;82;21056;-75
2022/01/09 02:38:40;;;;;;;12.57;9.20;;;;;;;-1.07;90.43;98346.73;1710165;82;21145;-75
2022/01/09 02:41:07;;;;;;;12.80;9.55;;;;;;;-1.26;90.35;98344.59;1712426;82;21788;-75
2022/01/09 02:43:35;;;;;;;13.80;9.48;;;;;;;-1.43;90.30;98338.97;1703469;82;21266;-75
2022/01/09 02:48:35;;;;;;;14.38;9.55;;;;;;;-1.79;90.30;98336.31;1708899;82;21522;-75
2022/01/09 02:51:09;;;;;;;12.35;9.05;;;;;;;-1.95;90.35;98337.47;1695581;83;21089;-75
2022/01/09 02:53:35;;;;;;;14.63;9.75;;;;;;;-2.10;90.33;98329.22;1694188;81;20962;-75
2022/01/09 02:56:00;;;;;;;15.75;9.25;;;;;;;-2.25;90.29;98332.04;1677395;83;21072;-75
2022/01/09 02:58:26;;;;;;;14.45;9.60;;;;;;;-2.38;90.31;98333.12;1677082;83;21124;-75
2022/01/09 03:00:53;;;;;;;14.87;10.83;;;;;;;-2.50;90.37;98322.23;1671480;83;22616;-75
2022/01/09 03:03:20;;;;;;;16.23;10.53;;;;;;;-2.63;90.36;98314.80;1696456;83;21074;-75
2022/01/09 03:05:47;;;;;;;18.23;11.57;;;;;;;-2.74;90.36;98313.28;1695509;82;21021;-75
2022/01/09 03:08:14;;;;;;;13.72;9.93;;;;;;;-2.84;90.47;98313.45;1692777;83;21065;-75
2022/01/09 03:10:41;;;;;;;15.25;10.50;;;;;;;-2.93;90.45;98308.91;1694967;83;21143;-75
2022/01/09 03:13:08;;;;;;;14.60;9.45;;;;;;;-3.01;90.50;98306.90;1711037;82;21002;-75
2022/01/09 03:15:35;;;;;;;12.98;9.70;;;;;;;-3.07;90.64;98304.44;1698922;83;21085;-76
2022/01/09 03:18:02;;;;;;;14.90;10.82;;;;;;;-3.11;90.78;98300.23;1708540;82;20977;-75
2022/01/09 03:20:29;;;;;;;15.13;9.30;;;;;;;-3.18;90.79;98301.20;1710514;82;21053;-75
2022/01/09 03:22:57;;;;;;;15.32;11.00;;;;;;;-3.24;90.80;98297.48;1710971;82;21101;-76
2022/01/09 03:25:26;;;;;;;16.25;13.18;;;;;;;-3.26;90.84;98303.03;1706790;82;21620;-75
2022/01/09 03:27:54;;;;;;;15.90;11.93;;;;;;;-3.30;90.90;98296.30;1714397;82;21029;-74
2022/01/09 03:30:23;;;;;;;16.45;11.88;;;;;;;-3.34;90.83;98299.73;1709191;82;20934;-75
2022/01/09 03:32:52;;;;;;;25.27;19.62;;;;;;;-3.38;90.90;98302.34;1709872;82;20970;-75
2022/01/09 03:35:21;;;;;;;33.83;23.83;;;;;;;-3.41;90.94;98299.83;1706183;82;20969;-75
2022/01/09 03:37:50;;;;;;;34.48;24.52;;;;;;;-3.42;90.99;98297.28;1709301;82;21021;-75
2022/01/09 03:40:22;;;;;;;43.10;33.50;;;;;;;-3.43;91.03;98298.16;1677279;83;21091;-75
2022/01/09 03:42:51;;;;;;;51.45;40.88;;;;;;;-3.45;91.08;98295.62;1711679;82;21028;-75
2022/01/09 03:45:19;;;;;;;26.33;20.27;;;;;;;-3.46;91.22;98295.22;1664971;85;21522;-73
2022/01/09 03:47:45;;;;;;;33.50;23.95;;;;;;;-3.43;91.32;98295.17;1694931;83;21001;-74
2022/01/09 03:50:14;;;;;;;30.05;20.08;;;;;;;-3.43;91.34;98295.61;1711375;82;21485;-76
2022/01/09 03:52:41;;;;;;;27.90;19.62;;;;;;;-3.37;91.66;98301.45;1663833;86;21400;-76
2022/01/09 03:55:12;;;;;;;35.58;26.37;;;;;;;-3.23;91.98;98296.16;1693625;83;21086;-76
2022/01/09 03:57:39;;;;;;;34.95;23.90;;;;;;;-3.09;92.13;98298.51;1709191;82;21029;-76
2022/01/09 04:00:11;;;;;;;30.62;21.00;;;;;;;-2.95;92.21;98294.47;1704091;82;21033;-76
2022/01/09 04:02:37;;;;;;;28.50;19.27;;;;;;;-2.82;92.19;98287.46;1710030;82;20997;-76
2022/01/09 04:05:06;;;;;;;23.70;16.77;;;;;;;-2.70;92.17;98292.36;1710359;82;21127;-76
2022/01/09 04:07:33;;;;;;;24.55;16.77;;;;;;;-2.61;92.16;98282.41;1689029;82;21081;-76
2022/01/09 04:10:00;;;;;;;20.37;15.10;;;;;;;-2.52;92.09;98280.55;1712082;82;21129;-76
2022/01/09 04:12:34;;;;;;;24.90;17.75;;;;;;;-2.43;92.04;98281.27;1688413;82;21021;-76
2022/01/09 04:14:58;;;;;;;24.90;15.72;;;;;;;-2.39;92.01;98272.66;1711331;82;20905;-75
2022/01/09 04:17:37;;;;;;;23.27;16.85;;;;;;;-2.32;91.91;98276.80;1688255;83;21089;-81
2022/01/09 04:19:53;;;;;;;22.67;17.75;;;;;;;-2.31;91.81;98279.75;1709638;82;20927;-75
2022/01/09 04:22:19;;;;;;;23.83;19.35;;;;;;;-2.29;91.75;98269.06;1710460;82;21005;-75
2022/01/09 04:24:46;;;;;;;27.95;18.57;;;;;;;-2.28;91.71;98265.19;1664373;84;21007;-81
2022/01/09 04:27:13;;;;;;;25.68;16.70;;;;;;;-2.29;91.64;98266.51;1698706;83;21556;-79
2022/01/09 04:29:40;;;;;;;23.87;17.70;;;;;;;-2.30;91.54;98262.25;1696024;83;22342;-80
2022/01/09 04:32:08;;;;;;;24.15;16.93;;;;;;;-2.35;91.37;98266.59;1711744;82;20918;-80
2022/01/09 04:34:35;;;;;;;25.65;16.87;;;;;;;-2.42;91.28;98266.32;1710787;82;20921;-80
2022/01/09 04:37:01;;;;;;;21.37;15.75;;;;;;;-2.52;91.23;98260.11;1710670;82;21579;-83
2022/01/09 04:39:28;;;;;;;198.40;138.30;;;;;;;-2.59;91.28;98261.08;1681544;84;21033;-83
2022/01/09 04:41:55;;;;;;;383.15;221.87;;;;;;;-2.63;91.39;98256.91;1665280;84;21805;-83
2022/01/09 04:44:22;;;;;;;156.78;92.65;;;;;;;-2.71;91.37;98257.47;1696288;83;21505;-83
2022/01/09 04:46:57;;;;;;;35.85;24.85;;;;;;;-2.77;91.32;98251.19;1696272;83;21066;-84
2022/01/09 04:49:22;;;;;;;26.55;17.92;;;;;;;-2.84;91.42;98249.59;1709029;82;21009;-84
2022/01/09 04:51:46;;;;;;;24.05;17.48;;;;;;;-2.88;91.43;98247.98;1707794;82;21037;-84
2022/01/09 04:54:13;;;;;;;29.05;19.98;;;;;;;-2.94;91.52;98244.66;1704176;82;22397;-83
2022/01/09 04:56:39;;;;;;;21.73;16.17;;;;;;;-2.95;91.63;98249.33;1704903;82;20971;-83
2022/01/09 04:59:06;;;;;;;20.15;13.48;;;;;;;-2.98;91.63;98253.22;1699169;82;21063;-83
2022/01/09 05:01:33;;;;;;;23.62;16.25;;;;;;;-3.00;91.66;98247.28;1711155;82;21572;-84
2022/01/09 05:03:59;;;;;;;19.42;14.35;;;;;;;-3.03;91.68;98249.89;1702592;82;21695;-83
2022/01/09 05:06:26;;;;;;;19.20;14.53;;;;;;;-3.07;91.56;98248.27;1708313;82;21215;-83
2022/01/09 05:08:52;;;;;;;21.75;15.85;;;;;;;-3.11;91.62;98235.56;1710552;82;20970;-83
2022/01/09 05:11:19;;;;;;;24.30;16.23;;;;;;;-3.13;91.70;98235.61;1676531;83;21650;-83
2022/01/09 05:13:46;;;;;;;21.40;16.60;;;;;;;-3.15;91.66;98233.50;1679356;83;21022;-83
2022/01/09 05:16:12;;;;;;;20.80;15.15;;;;;;;-3.17;91.82;98228.84;1710417;82;21033;-83
2022/01/09 05:18:52;;;;;;;25.25;18.95;;;;;;;-3.15;91.98;98231.78;1708911;82;21927;-83
2022/01/09 05:21:10;;;;;;;25.17;18.48;;;;;;;-3.15;91.92;98236.05;1700702;82;20996;-83
2022/01/09 05:23:37;;;;;;;23.52;18.23;;;;;;;-3.18;91.72;98242.48;1707913;82;21065;-83
2022/01/09 05:26:03;;;;;;;28.87;18.42;;;;;;;-3.22;91.69;98235.73;1704568;82;21089;-83
2022/01/09 05:28:30;;;;;;;34.33;23.12;;;;;;;-3.24;91.73;98240.04;1703933;82;21004;-83
2022/01/09 05:30:57;;;;;;;27.95;20.52;;;;;;;-3.25;91.82;98248.55;1703531;82;22510;-82
2022/01/09 05:33:23;;;;;;;28.95;20.97;;;;;;;-3.28;91.72;98240.94;1704223;82;21511;-83
2022/01/09 05:35:50;;;;;;;25.50;19.20;;;;;;;-3.32;91.67;98246.97;1708057;82;21034;-83
2022/01/09 05:38:18;;;;;;;32.78;20.92;;;;;;;-3.34;91.75;98257.19;1710572;82;21001;-83
2022/01/09 05:40:45;;;;;;;27.85;19.90;;;;;;;-3.33;91.77;98258.02;1710487;82;21036;-85
2022/01/09 05:43:12;;;;;;;32.15;21.93;;;;;;;-3.35;91.82;98259.34;1704673;82;21067;-85
2022/01/09 05:45:39;;;;;;;31.93;20.35;;;;;;;-3.32;91.98;98262.28;1716583;82;21117;-84
2022/01/09 05:48:06;;;;;;;26.52;18.32;;;;;;;-3.26;92.10;98267.29;1681080;83;21037;-84
2022/01/09 05:50:34;;;;;;;33.33;22.82;;;;;;;-3.22;92.15;98268.91;1701377;83;21063;-84
2022/01/09 05:53:01;;;;;;;33.67;24.35;;;;;;;-3.17;92.26;98263.31;1713597;82;21093;-84
2022/01/09 05:55:29;;;;;;;43.38;27.60;;;;;;;-3.08;92.39;98259.36;1717805;82;21149;-84
2022/01/09 05:57:57;;;;;;;34.95;22.82;;;;;;;-2.98;92.45;98271.09;1688724;83;21890;-85
2022/01/09 06:00:25;;;;;;;42.90;30.30;;;;;;;-2.90;92.48;98270.98;1654360;84;21082;-84
2022/01/09 06:02:52;;;;;;;49.58;32.60;;;;;;;-2.80;92.48;98276.77;1699960;83;20969;-84
2022/01/09 06:05:18;;;;;;;60.25;34.50;;;;;;;-2.73;92.44;98270.69;1721075;82;21452;-84
2022/01/09 06:07:45;;;;;;;44.17;24.87;;;;;;;-2.67;92.39;98270.58;1721642;82;21065;-84
2022/01/09 06:10:12;;;;;;;37.00;26.90;;;;;;;-2.63;92.37;98272.23;1718357;82;21588;-84
2022/01/09 06:12:39;;;;;;;35.92;24.27;;;;;;;-2.50;92.26;98282.62;1717449;82;21583;-84
2022/01/09 06:15:08;;;;;;;26.23;19.05;;;;;;;-2.50;92.26;98282.62;1713625;82;21207;-84
2022/01/09 06:17:55;;;;;;;28.00;17.85;;;;;;;-2.43;92.40;98288.93;1686975;83;21031;-85
2022/01/09 06:20:22;;;;;;;30.82;19.92;;;;;;;-2.38;92.41;98284.55;1784034;78;21668;-84
2022/01/09 06:22:49;;;;;;;32.42;18.92;;;;;;;-2.33;92.40;98287.43;1778002;80;21054;-84
2022/01/09 06:25:15;;;;;;;26.20;18.47;;;;;;;-2.29;92.37;98294.63;1785517;78;21330;-85
2022/01/09 06:27:43;;;;;;;23.62;16.35;;;;;;;-2.24;92.33;98300.51;1786442;80;21215;-83
2022/01/09 06:30:11;;;;;;;26.68;17.60;;;;;;;-2.18;92.35;98305.50;1740494;81;20990;-85
2022/01/09 06:32:38;;;;;;;26.50;16.48;;;;;;;-2.15;92.28;98308.00;1732829;82;21939;-84
2022/01/09 06:35:06;;;;;;;29.72;16.27;;;;;;;-2.14;92.23;98313.51;1733678;82;21040;-84
2022/01/09 06:37:33;;;;;;;25.95;16.10;;;;;;;-2.13;92.14;98312.66;1781982;78;21054;-85
2022/01/09 06:40:00;;;;;;;;;;;;;;;-2.11;92.18;98309.61;1781891;80;21665;-84
2022/01/09 06:42:26;;;;;;;27.32;17.42;;;;;;;-2.10;92.20;98311.31;1785176;80;20278;-85
2022/01/09 06:44:54;;;;;;;22.93;17.12;;;;;;;-2.07;92.26;98308.70;1782791;80;21073;-85
2022/01/09 06:47:26;;;;;;;21.65;15.93;;;;;;;-2.05;92.26;98314.61;1779471;79;21070;-86
2022/01/09 06:49:54;;;;;;;26.23;16.15;;;;;;;-2.03;92.23;98312.87;1780771;80;21022;-86
2022/01/09 06:52:21;;;;;;;28.77;17.75;;;;;;;-1.98;92.17;98317.07;1777329;79;21452;-86
2022/01/09 06:54:51;;;;;;;23.40;16.10;;;;;;;-2.00;91.98;98318.80;1788817;78;21057;-87
2022/01/09 06:57:18;;;;;;;23.57;14.70;;;;;;;-2.03;91.89;98320.55;1780674;79;21333;-86
2022/01/09 06:59:45;;;;;;;;;;;;;;;-2.08;91.74;98324.06;1764620;80;21015;-86
2022/01/09 07:02:12;;;;;;;24.23;16.53;;;;;;;-2.12;91.75;98319.89;1773071;80;20120;-86
2022/01/09 07:04:40;;;;;;;24.57;15.43;;;;;;;-2.15;91.82;98333.57;1765968;80;21275;-85
2022/01/09 07:07:07;;;;;;;25.97;17.02;;;;;;;-2.16;91.93;98328.03;1760780;80;20944;-85
2022/01/09 07:09:34;;;;;;;25.70;16.15;;;;;;;-2.15;91.94;98331.02;1734057;80;21910;-86
2022/01/09 07:12:01;;;;;;;29.10;17.70;;;;;;;-2.14;91.91;98337.80;1761381;78;20979;-88
2022/01/09 07:14:30;;;;;;;25.83;16.43;;;;;;;-2.13;91.97;98344.63;1772200;80;21553;-86
2022/01/09 07:16:57;;;;;;;23.42;15.75;;;;;;;-2.08;92.14;98345.80;1760490;80;21645;-82
2022/01/09 07:19:24;;;;;;;27.75;15.88;;;;;;;-2.04;92.20;98341.89;1771740;80;26729;-87
2022/01/09 07:21:53;;;;;;;28.10;16.62;;;;;;;-1.98;92.26;98345.21;1762395;80;21272;-85
2022/01/09 07:24:21;;;;;;;30.35;18.87;;;;;;;-1.94;92.24;98350.66;1757067;80;20963;-90
2022/01/09 07:26:49;;;;;;;31.70;20.37;;;;;;;-1.88;92.27;98354.37;1744068;80;21600;-82
2022/01/09 07:29:18;;;;;;;28.32;19.05;;;;;;;-1.85;92.26;98354.31;1757746;80;21699;-80
2022/01/09 07:31:46;;;;;;;29.72;18.57;;;;;;;-1.82;92.18;98359.37;1770126;80;21645;-82
2022/01/09 07:34:14;;;;;;;24.30;15.60;;;;;;;-1.80;92.17;98356.35;1760021;80;21088;-88
2022/01/09 07:36:42;;;;;;;24.07;16.35;;;;;;;-1.77;92.12;98365.25;1756281;80;20981;-83
2022/01/09 07:39:08;;;;;;;21.77;15.28;;;;;;;-1.73;92.14;98373.28;1767283;80;21003;-81
2022/01/09 07:41:36;;;;;;;30.02;19.32;;;;;;;-1.68;92.09;98367.65;1759953;79;21645;-80
2022/01/09 07:44:05;;;;;;;27.70;17.05;;;;;;;-1.67;92.08;98369.32;1746818;80;21577;-84
2022/01/09 07:46:32;;;;;;;25.17;17.23;;;;;;;-1.67;91.88;98365.92;1764069;79;22134;-86
2022/01/09 07:48:59;;;;;;;26.77;17.20;;;;;;;-1.68;91.79;98380.45;1769874;79;20987;-85
2022/01/09 07:51:26;;;;;;;33.67;18.07;;;;;;;-1.70;91.75;98371.94;1755525;80;20951;-85
2022/01/09 07:53:52;;;;;;;29.15;18.70;;;;;;;-1.69;91.81;98368.50;1761762;80;21046;-81
2022/01/09 07:56:19;;;;;;;29.77;19.50;;;;;;;-1.62;91.79;98376.48;1766622;79;21014;-87
2022/01/09 07:58:46;;;;;;;29.70;20.00;;;;;;;-1.54;91.86;98370.34;1761978;80;21923;-86
2022/01/09 08:01:14;;;;;;;33.40;22.17;;;;;;;-1.48;91.70;98375.38;1778186;80;21541;-86
2022/01/09 08:03:40;;;;;;;38.08;23.25;;;;;;;-1.49;91.59;98364.70;1777370;80;21002;-86
2022/01/09 08:06:07;;;;;;;36.25;23.83;;;;;;;-1.51;91.43;98358.77;1781176;79;21008;-84
2022/01/09 08:08:33;;;;;;;37.58;22.82;;;;;;;-1.55;91.32;98354.59;1781713;80;20959;-86
2022/01/09 08:11:05;;;;;;;35.40;21.33;;;;;;;-1.60;91.21;98355.55;1778444;80;21009;-81
2022/01/09 08:13:31;;;;;;;39.63;23.20;;;;;;;-1.68;90.98;98364.22;1779918;80;20990;-87
2022/01/09 08:15:58;;;;;;;39.95;21.23;;;;;;;-1.80;91.02;98366.59;1777831;79;21767;-81
2022/01/09 08:18:25;;;;;;;33.67;22.50;;;;;;;-1.86;91.14;98370.55;1784229;79;20906;-81
2022/01/09 08:20:53;;;;;;;38.67;24.52;;;;;;;-1.87;91.20;98379.11;1764060;79;21022;-82
2022/01/09 08:23:20;;;;;;;41.60;25.72;;;;;;;-1.92;91.16;98380.45;1782921;79;21419;-82
2022/01/09 08:25:47;;;;;;;43.50;27.40;;;;;;;-1.93;91.22;98385.18;1781761;79;20899;-81
2022/01/09 08:28:13;;;;;;;45.03;27.50;;;;;;;-1.88;91.50;98390.19;1784441;79;21049;-81
2022/01/09 08:30:40;;;;;;;44.03;25.82;;;;;;;-1.79;91.73;98396.44;1784010;79;20978;-81
2022/01/09 08:33:07;;;;;;;43.28;24.77;;;;;;;-1.71;91.79;98393.71;1784242;79;21581;-82
2022/01/09 08:35:33;;;;;;;48.80;26.37;;;;;;;-1.63;91.92;98385.01;1780879;79;21191;-82
2022/01/09 08:38:01;;;;;;;45.10;26.93;;;;;;;-1.59;91.77;98394.33;1781517;79;21605;-82
2022/01/09 08:40:27;;;;;;;40.58;25.97;;;;;;;-1.52;91.84;98378.84;1783610;79;21030;-82
2022/01/09 08:42:54;;;;;;;48.33;26.97;;;;;;;-1.43;91.86;98387.61;1787745;79;20973;-82
2022/01/09 08:45:23;;;;;;;43.28;26.30;;;;;;;-1.39;91.76;98385.41;1783582;79;21041;-81
2022/01/09 08:47:51;;;;;;;49.33;28.12;;;;;;;-1.32;91.70;98383.11;1744176;79;227902;-81
2022/01/09 08:50:19;;;;;;;44.20;27.77;;;;;;;-1.24;91.71;98389.36;1677132;82;138274;-82
2022/01/09 08:52:46;;;;;;;43.75;27.10;;;;;;;-1.11;91.72;98388.68;1704430;82;21040;-82
2022/01/09 08:55:15;;;;;;;46.88;25.65;;;;;;;-1.09;91.33;98386.91;1699338;82;21068;-82
2022/01/09 08:57:42;;;;;;;45.05;27.45;;;;;;;-1.10;91.22;98385.23;1676819;83;21083;-82
2022/01/09 09:00:11;;;;;;;47.85;27.45;;;;;;;-1.08;91.14;98386.05;1687574;83;21082;-81
2022/01/09 09:02:38;;;;;;;44.35;25.17;;;;;;;-1.06;91.05;98386.87;1701370;82;21061;-82
2022/01/09 09:05:05;;;;;;;46.40;26.55;;;;;;;-1.06;90.96;98386.87;1699350;83;20982;-82
2022/01/09 09:07:34;;;;;;;39.45;26.42;;;;;;;-1.06;91.00;98386.87;1699910;83;21003;-81
2022/01/09 09:10:04;;;;;;;44.50;25.77;;;;;;;-1.04;90.92;98388.94;1701191;82;21055;-82
2022/01/09 09:12:33;;;;;;;44.55;27.48;;;;;;;-1.01;90.89;98381.18;1701485;82;21101;-81
2022/01/09 09:15:01;;;;;;;46.42;28.12;;;;;;;-1.00;90.76;98387.56;1700780;83;21044;-82
2022/01/09 09:17:28;;;;;;;42.70;25.97;;;;;;;-0.99;90.72;98380.72;1701289;82;21054;-81
2022/01/09 09:19:55;;;;;;;50.25;29.98;;;;;;;-1.02;90.59;98378.22;1698758;82;21020;-81
2022/01/09 09:22:23;;;;;;;42.08;26.30;;;;;;;-1.08;90.71;98380.92;1695465;83;21718;-82
2022/01/09 09:24:50;;;;;;;;;;;;;;;-1.06;90.85;98384.30;1696114;83;21142;-81
2022/01/09 09:27:19;;;;;;;38.05;24.20;;;;;;;-1.10;90.63;98380.11;1692505;83;20246;-81
2022/01/09 09:29:46;;;;;;;43.25;26.35;;;;;;;-1.14;90.59;98377.61;1695300;83;21517;-82
2022/01/09 09:32:13;;;;;;;43.15;27.32;;;;;;;-1.16;90.70;98381.08;1691757;83;21074;-80
2022/01/09 09:34:41;;;;;;;47.03;27.25;;;;;;;-1.15;90.77;98386.19;1695151;82;25892;-76
2022/01/09 09:37:07;;;;;;;;;;;;;;;-1.13;90.66;98388.70;1694605;83;21092;-75
2022/01/09 09:39:34;;;;;;;49.23;27.67;;;;;;;-1.11;90.77;98383.56;1693668;83;20538;-76
2022/01/09 09:42:01;;;;;;;46.40;29.10;;;;;;;-1.10;90.70;98381.39;1694690;83;21089;-80
2022/01/09 09:44:27;;;;;;;40.40;24.90;;;;;;;-1.10;90.72;98377.55;1692931;83;21095;-82
2022/01/09 09:46:55;;;;;;;37.65;24.52;;;;;;;-1.12;90.56;98375.03;1696335;83;21105;-80
2022/01/09 09:49:22;;;;;;;39.98;24.52;;;;;;;-1.13;90.85;98367.77;1700117;83;21115;-80
2022/01/09 09:51:49;;;;;;;37.08;23.40;;;;;;;-1.07;90.65;98367.23;1696704;83;21163;-80
2022/01/09 09:54:15;;;;;;;39.20;25.12;;;;;;;-1.10;90.43;98363.45;1696528;83;21601;-80
2022/01/09 09:56:42;;;;;;;40.80;26.62;;;;;;;-1.10;90.47;98362.17;1695475;83;21632;-80
2022/01/09 09:59:09;;;;;;;41.30;26.97;;;;;;;-1.08;90.51;98360.44;1694519;82;21099;-80
2022/01/09 10:01:36;;;;;;;72.40;42.53;;;;;;;-1.07;90.43;98360.83;1695942;83;21063;-79
2022/01/09 10:04:09;;;;;;;46.23;29.63;;;;;;;-1.03;90.58;98363.73;1697157;83;21265;-80
2022/01/09 10:06:48;;;;;;;39.55;26.87;;;;;;;-1.01;90.44;98356.84;1690296;83;20959;-80
2022/01/09 10:09:21;;;;;;;91.32;44.83;;;;;;;-1.01;90.25;98359.41;1694938;83;21086;-78
2022/01/09 10:12:00;;;;;;;59.33;32.55;;;;;;;-1.03;90.24;98350.93;1694813;83;21082;-80
2022/01/09 10:14:33;;;;;;;39.70;25.32;;;;;;;-1.04;90.11;98354.34;1695103;83;21089;-80
2022/01/09 10:17:21;;;;;;;44.53;25.77;;;;;;;-1.03;90.00;98352.21;1693976;83;21011;-80
2022/01/09 10:19:53;;;;;;;40.48;27.37;;;;;;;-1.05;89.88;98332.19;1695963;83;20984;-79
2022/01/09 10:22:44;;;;;;;43.28;24.15;;;;;;;-1.06;89.94;98331.79;1702644;82;21007;-79
2022/01/09 10:25:36;;;;;;;45.15;27.50;;;;;;;-1.07;89.69;98339.05;1700713;82;21305;-80
2022/01/09 10:28:21;;;;;;;45.03;29.27;;;;;;;-1.07;89.87;98333.92;1699961;82;21098;-79
2022/01/09 10:30:49;;;;;;;41.90;29.55;;;;;;;-1.00;90.08;98332.92;1700075;82;21021;-75
2022/01/09 10:33:38;;;;;;;42.05;27.15;;;;;;;-0.94;90.09;98330.22;1702136;82;21169;-69
2022/01/09 10:36:05;;;;;;;43.87;27.70;;;;;;;-0.90;89.95;98329.25;1642606;85;21060;-67
2022/01/09 10:38:32;;;;;;;46.98;28.32;;;;;;;-0.87;89.87;98322.77;1642368;85;21048;-68
2022/01/09 10:41:03;;;;;;;48.50;28.73;;;;;;;-0.84;89.71;98320.16;1616314;88;21300;-68
2022/01/09 10:43:37;;;;;;;47.73;27.42;;;;;;;-0.80;89.58;98312.79;1605096;87;21065;-69
2022/01/09 10:46:04;;;;;;;54.88;28.20;;;;;;;-0.79;89.61;98310.62;1610364;87;21139;-68
2022/01/09 10:48:42;;;;;;;49.38;26.35;;;;;;;-0.78;89.34;98305.92;1586484;88;21132;-69
2022/01/09 10:51:13;;;;;;;49.48;27.25;;;;;;;-0.80;89.13;98310.23;1601978;88;21041;-68
2022/01/09 10:53:45;;;;;;;44.10;24.00;;;;;;;-0.80;89.25;98317.92;1602069;88;21799;-69
2022/01/09 10:56:24;;;;;;;52.83;26.90;;;;;;;-0.77;89.09;98317.84;1601416;88;21691;-69
2022/01/09 10:58:53;;;;;;;54.40;26.85;;;;;;;-0.75;89.16;98313.97;1602495;88;21036;-69
2022/01/09 11:01:27;;;;;;;41.55;27.13;;;;;;;-0.75;89.21;98318.66;1607549;88;21034;-69
2022/01/09 11:04:08;;;;;;;37.50;24.20;;;;;;;-0.73;89.01;98311.78;1617056;87;20998;-69
2022/01/09 11:06:36;;;;;;;41.55;23.75;;;;;;;-0.70;89.21;98306.58;1614774;87;21171;-70
2022/01/09 11:09:06;;;;;;;44.05;25.02;;;;;;;-0.68;88.97;98302.23;1644209;85;21054;-70
2022/01/09 11:11:37;;;;;;;39.03;23.55;;;;;;;-0.66;88.78;98306.50;1643995;85;21023;-69
2022/01/09 11:14:05;;;;;;;41.37;24.35;;;;;;;-0.62;89.00;98306.81;1625389;86;21116;-70
2022/01/09 11:16:34;;;;;;;36.38;22.90;;;;;;;-0.63;88.47;98306.42;1637564;87;20938;-70
2022/01/09 11:19:16;;;;;;;34.83;19.30;;;;;;;-0.65;88.27;98308.17;1615649;87;21104;-69
2022/01/09 11:21:55;;;;;;;40.65;25.70;;;;;;;-0.69;87.99;98308.25;1603768;87;20977;-69
2022/01/09 11:24:33;;;;;;;42.65;25.57;;;;;;;-0.71;88.23;98312.56;1611494;87;21027;-69
2022/01/09 11:27:30;;;;;;;42.55;26.37;;;;;;;-0.74;88.19;98320.33;1613795;87;21131;-69